createdAt,value
2022-10-11T00:01:20.149Z,5.10
2022-10-11T00:03:46.738Z,5.65
2022-10-11T00:06:13.434Z,4.90
2022-10-11T00:08:39.998Z,4.78
2022-10-11T00:11:08.137Z,4.57
2022-10-11T00:13:35.007Z,4.80
2022-10-11T00:16:06.714Z,4.63
2022-10-11T00:18:33.552Z,4.93
2022-10-11T00:21:12.057Z,4.80
2022-10-11T00:23:39.456Z,4.75
2022-10-11T00:26:08.329Z,4.53
2022-10-11T00:28:36.065Z,4.88
2022-10-11T00:31:06.325Z,4.85
2022-10-11T00:33:33.214Z,4.90
2022-10-11T00:36:00.767Z,4.68
2022-10-11T00:38:27.374Z,5.15
2022-10-11T00:40:53.904Z,5.05
2022-10-11T00:43:24.128Z,4.78
2022-10-11T00:45:56.762Z,4.93
2022-10-11T00:48:36.341Z,4.90
2022-10-11T00:51:07.974Z,4.85
2022-10-11T00:53:34.781Z,5.22
2022-10-11T00:56:08.790Z,4.88
2022-10-11T00:58:37.028Z,5.18
2022-10-11T01:01:03.773Z,5.25
2022-10-11T01:03:32.961Z,4.65
2022-10-11T01:05:59.544Z,4.60
2022-10-11T01:08:27.124Z,5.50
2022-10-11T01:10:54.041Z,4.75
2022-10-11T01:13:56.016Z,4.63
2022-10-11T01:19:06.212Z,4.63
2022-10-11T01:21:48.066Z,4.40
2022-10-11T01:24:48.587Z,4.70
2022-10-11T01:27:39.921Z,4.53
2022-10-11T01:30:30.127Z,4.45
2022-10-11T01:33:22.032Z,4.40
2022-10-11T01:36:05.135Z,3.95
2022-10-11T01:41:07.952Z,3.78
2022-10-11T01:43:36.145Z,4.28
2022-10-11T01:46:04.127Z,4.38
2022-10-11T01:48:30.920Z,4.70
2022-10-11T01:50:58.867Z,4.40
2022-10-11T01:53:59.238Z,4.40
2022-10-11T01:57:01.151Z,4.25
2022-10-11T02:02:45.918Z,3.65
2022-10-11T02:05:17.292Z,4.05
2022-10-11T02:07:50.037Z,4.28
2022-10-11T02:10:40.781Z,4.38
2022-10-11T02:13:20.140Z,4.50
2022-10-11T02:15:49.240Z,4.13
2022-10-11T02:18:29.601Z,4.15
2022-10-11T02:20:58.839Z,4.05
2022-10-11T02:23:33.028Z,3.70
2022-10-11T02:26:01.476Z,4.07
2022-10-11T02:28:32.063Z,3.88
2022-10-11T02:31:00.757Z,3.92
2022-10-11T02:33:33.260Z,4.22
2022-10-11T02:36:07.157Z,3.83
2022-10-11T02:38:40.546Z,4.10
2022-10-11T02:41:21.414Z,4.03
2022-10-11T02:43:57.597Z,4.22
2022-10-11T02:46:25.293Z,3.83
2022-10-11T02:48:52.263Z,4.30
2022-10-11T02:51:18.842Z,3.65
2022-10-11T02:53:45.625Z,3.97
2022-10-11T02:56:12.119Z,4.07
2022-10-11T02:58:41.405Z,4.35
2022-10-11T03:01:08.285Z,3.92
2022-10-11T03:03:34.797Z,4.03
2022-10-11T03:06:03.601Z,3.83
2022-10-11T03:08:30.893Z,4.20
2022-10-11T03:10:57.420Z,4.00
2022-10-11T03:13:24.108Z,3.65
2022-10-11T03:16:07.405Z,3.92
2022-10-11T03:18:34.259Z,3.80
2022-10-11T03:21:00.960Z,3.90
2022-10-11T03:23:27.597Z,3.42
2022-10-11T03:25:54.319Z,4.00
2022-10-11T03:28:21.346Z,3.40
2022-10-11T03:30:49.024Z,3.58
2022-10-11T03:33:17.230Z,3.60
2022-10-11T03:35:45.749Z,3.40
2022-10-11T03:38:15.085Z,3.75
2022-10-11T03:40:43.090Z,3.92
2022-10-11T03:43:10.703Z,3.63
2022-10-11T03:45:37.549Z,3.90
2022-10-11T03:48:04.248Z,3.65
2022-10-11T03:50:31.476Z,3.55
2022-10-11T03:52:58.348Z,3.72
2022-10-11T03:55:24.881Z,3.47
2022-10-11T03:57:51.501Z,3.05
2022-10-11T04:00:18.166Z,3.13
2022-10-11T04:02:44.794Z,3.70
2022-10-11T04:05:12.743Z,4.15
2022-10-11T04:07:40.086Z,3.20
2022-10-11T04:10:07.406Z,4.32
2022-10-11T04:12:34.369Z,4.40
2022-10-11T04:15:00.864Z,4.00
2022-10-11T04:17:27.353Z,3.80
2022-10-11T04:19:54.068Z,3.60
2022-10-11T04:22:20.614Z,4.00
2022-10-11T04:24:47.122Z,3.83
2022-10-11T04:27:13.719Z,3.90
2022-10-11T04:29:40.264Z,4.00
2022-10-11T04:32:06.778Z,3.72
2022-10-11T04:34:33.412Z,3.88
2022-10-11T04:36:59.882Z,3.97
2022-10-11T04:39:26.415Z,3.92
2022-10-11T04:41:53.077Z,3.70
2022-10-11T04:44:19.578Z,3.75
2022-10-11T04:46:46.229Z,3.55
2022-10-11T04:49:12.877Z,3.67
2022-10-11T04:51:39.402Z,4.30
2022-10-11T04:54:06.076Z,4.00
2022-10-11T04:56:32.667Z,4.93
2022-10-11T04:58:59.151Z,4.30
2022-10-11T05:01:25.823Z,4.20
2022-10-11T05:03:52.507Z,3.72
2022-10-11T05:06:19.163Z,4.13
2022-10-11T05:08:45.729Z,3.95
2022-10-11T05:11:15.806Z,4.60
2022-10-11T05:13:43.887Z,4.18
2022-10-11T05:16:11.802Z,4.68
2022-10-11T05:18:40.053Z,4.55
2022-10-11T05:21:20.260Z,4.30
2022-10-11T05:23:48.300Z,4.45
2022-10-11T05:26:15.725Z,4.43
2022-10-11T05:28:42.469Z,5.35
2022-10-11T05:31:09.333Z,4.47
2022-10-11T05:33:36.428Z,5.10
2022-10-11T05:36:03.450Z,4.63
2022-10-11T05:38:30.386Z,5.63
2022-10-11T05:41:01.048Z,6.72
2022-10-11T05:43:28.447Z,6.80
2022-10-11T05:45:55.303Z,5.93
2022-10-11T05:48:22.011Z,6.05
2022-10-11T05:50:48.679Z,6.10
2022-10-11T05:53:15.416Z,6.38
2022-10-11T05:55:43.459Z,6.10
2022-10-11T05:58:15.030Z,6.05
2022-10-11T06:00:41.910Z,5.72
2022-10-11T06:03:11.320Z,6.32
2022-10-11T08:26:32.633Z,9.65
2022-10-11T08:29:03.338Z,8.52
2022-10-11T08:31:30.035Z,9.27
2022-10-11T08:33:57.529Z,10.10
2022-10-11T08:36:24.031Z,9.48
2022-10-11T08:38:50.621Z,9.32
2022-10-11T08:41:43.218Z,8.73
2022-10-11T08:45:05.563Z,8.48
2022-10-11T08:47:28.538Z,9.25
2022-10-11T08:49:56.564Z,9.23
2022-10-11T08:52:42.114Z,9.88
2022-10-11T08:55:20.028Z,8.77
2022-10-11T08:57:53.376Z,9.65
2022-10-11T09:00:21.299Z,8.25
2022-10-11T09:03:09.712Z,8.90
2022-10-11T09:05:49.822Z,8.75
2022-10-11T09:08:26.994Z,9.13
2022-10-11T09:11:15.391Z,8.88
2022-10-11T09:14:14.059Z,9.60
2022-10-11T09:17:05.571Z,9.52
2022-10-11T09:19:54.173Z,9.10
2022-10-11T09:22:45.314Z,9.27
2022-10-11T09:25:44.681Z,9.13
2022-10-11T09:28:33.075Z,9.50
2022-10-11T09:31:00.117Z,9.82
2022-10-11T09:33:33.986Z,7.63
2022-10-11T09:36:02.952Z,7.43
2022-10-11T09:38:43.148Z,7.25
2022-10-11T09:41:26.906Z,6.70
2022-10-11T09:43:53.479Z,6.93
2022-10-11T09:46:36.724Z,7.43
2022-10-11T09:49:08.895Z,6.90
2022-10-11T09:51:36.064Z,6.55
2022-10-11T09:54:05.615Z,6.97
2022-10-11T09:56:34.294Z,7.22
2022-10-11T09:59:27.637Z,7.20
2022-10-11T10:02:12.629Z,7.95
2022-10-11T10:05:00.309Z,7.45
2022-10-11T10:07:29.075Z,7.28
2022-10-11T10:09:56.113Z,6.70
2022-10-11T10:12:26.216Z,7.72
2022-10-11T10:15:07.393Z,6.85
2022-10-11T10:17:36.040Z,7.47
2022-10-11T10:20:05.581Z,6.68
2022-10-11T10:22:35.447Z,7.55
2022-10-11T10:25:08.170Z,8.43
2022-10-11T10:27:34.862Z,8.25
2022-10-11T10:30:07.717Z,8.77
2022-10-11T10:32:51.930Z,8.18
2022-10-11T10:35:32.459Z,8.63
2022-10-11T10:38:32.747Z,8.63
2022-10-11T10:41:04.667Z,8.18
2022-10-11T10:43:35.901Z,8.40
2022-10-11T10:46:21.728Z,8.82
2022-10-11T10:49:48.821Z,7.93
2022-10-11T10:52:24.239Z,8.35
2022-10-11T10:54:57.297Z,8.63
2022-10-11T10:57:31.860Z,8.18
2022-10-11T11:00:19.244Z,8.05
2022-10-11T11:02:57.083Z,7.38
2022-10-11T11:05:45.319Z,7.47
2022-10-11T11:08:36.084Z,6.88
2022-10-11T11:11:05.797Z,7.45
2022-10-11T11:13:55.374Z,7.63
2022-10-11T11:16:27.818Z,7.72
2022-10-11T11:19:13.498Z,7.72
2022-10-11T11:21:59.492Z,7.38
2022-10-11T11:24:38.311Z,6.25
2022-10-11T11:27:25.090Z,6.85
2022-10-11T11:30:29.892Z,6.68
2022-10-11T11:33:24.242Z,6.32
2022-10-11T11:35:54.073Z,6.60
2022-10-11T11:38:28.643Z,6.50
2022-10-11T11:41:02.184Z,6.72
2022-10-11T11:43:47.558Z,6.90
2022-10-11T11:46:20.644Z,6.30
2022-10-11T11:48:50.922Z,6.20
2022-10-11T11:51:38.332Z,5.63
2022-10-11T11:54:28.244Z,6.05
2022-10-11T11:57:18.932Z,5.55
2022-10-11T11:59:56.935Z,5.55
2022-10-11T12:02:38.096Z,5.82
2022-10-11T12:05:08.213Z,5.57
2022-10-11T12:07:48.016Z,5.22
2022-10-11T12:10:24.950Z,5.75
2022-10-11T12:13:06.854Z,5.18
2022-10-11T12:15:33.809Z,5.43
2022-10-11T12:18:04.691Z,5.32
2022-10-11T12:20:38.153Z,5.28
2022-10-11T12:23:30.431Z,5.40
2022-10-11T12:26:18.966Z,5.10
2022-10-11T12:29:00.592Z,5.15
2022-10-11T12:31:36.930Z,4.95
2022-10-11T12:34:09.586Z,5.18
2022-10-11T12:36:38.832Z,5.03
2022-10-11T12:39:20.904Z,4.80
2022-10-11T12:41:47.465Z,5.32
2022-10-11T12:44:26.958Z,5.15
2022-10-11T12:46:53.789Z,4.90
2022-10-11T12:49:32.345Z,4.70
2022-10-11T12:52:17.818Z,4.65
2022-10-11T12:55:14.907Z,4.53
2022-10-11T12:58:01.665Z,4.50
2022-10-11T13:00:33.915Z,3.65
2022-10-11T13:03:27.175Z,4.13
2022-10-11T13:06:01.408Z,3.92
2022-10-11T13:08:33.930Z,4.85
2022-10-11T13:11:09.917Z,4.63
2022-10-11T13:13:48.376Z,4.00
2022-10-11T13:16:18.758Z,3.22
2022-10-11T13:18:48.363Z,3.30
2022-10-11T13:21:24.161Z,3.85
2022-10-11T13:23:55.115Z,3.20
2022-10-11T13:26:21.702Z,2.85
2022-10-11T13:28:48.415Z,3.50
2022-10-11T13:31:15.123Z,3.13
2022-10-11T13:33:45.108Z,2.88
2022-10-11T13:36:20.752Z,3.25
2022-10-11T13:38:54.504Z,3.60
2022-10-11T13:41:21.870Z,3.42
2022-10-11T13:43:49.065Z,3.22
2022-10-11T13:46:21.856Z,3.00
2022-10-11T13:49:02.883Z,2.40
2022-10-11T13:51:35.569Z,2.72
2022-10-11T13:54:13.589Z,3.00
2022-10-11T13:56:43.391Z,2.80
2022-10-11T13:59:28.710Z,2.70
2022-10-11T14:02:01.286Z,2.50
2022-10-11T14:04:29.920Z,2.83
2022-10-11T14:07:02.929Z,2.95
2022-10-11T14:09:32.532Z,2.90
2022-10-11T14:12:28.759Z,3.30
2022-10-11T14:14:55.363Z,2.88
2022-10-11T14:17:40.611Z,2.47
2022-10-11T14:20:23.269Z,2.33
2022-10-11T14:22:54.164Z,2.95
2022-10-11T14:25:21.834Z,2.85
2022-10-11T14:27:49.345Z,2.80
2022-10-11T14:30:27.434Z,3.10
2022-10-11T14:32:56.648Z,2.80
2022-10-11T14:35:28.699Z,2.58
2022-10-11T14:37:55.341Z,2.78
2022-10-11T14:40:27.873Z,2.78
2022-10-11T14:42:55.020Z,2.67
2022-10-11T14:45:21.604Z,2.80
2022-10-11T14:47:49.054Z,2.78
2022-10-11T14:50:43.199Z,2.60
2022-10-11T14:53:11.849Z,3.03
2022-10-11T14:55:39.999Z,2.47
2022-10-11T14:58:08.010Z,2.28
2022-10-11T15:00:36.249Z,2.60
2022-10-11T15:03:04.864Z,2.50
2022-10-11T15:05:34.156Z,2.40
2022-10-11T15:08:01.733Z,2.58
2022-10-11T15:10:31.560Z,2.75
2022-10-11T15:12:58.211Z,2.90
2022-10-11T15:15:26.516Z,2.42
2022-10-11T15:17:55.482Z,2.92
2022-10-11T15:20:28.656Z,2.45
2022-10-11T15:22:56.825Z,2.63
2022-10-11T15:25:24.587Z,2.72
2022-10-11T15:27:52.016Z,2.30
2022-10-11T15:30:38.523Z,2.83
2022-10-11T15:33:07.006Z,2.70
2022-10-11T15:35:33.546Z,3.05
2022-10-11T15:38:00.480Z,3.05
2022-10-11T15:40:33.679Z,3.40
2022-10-11T15:43:00.706Z,2.78
2022-10-11T15:45:27.671Z,2.85
2022-10-11T15:47:54.586Z,3.63
2022-10-11T15:50:39.351Z,3.55
2022-10-11T15:53:28.610Z,3.60
2022-10-11T15:55:57.222Z,4.20
2022-10-11T15:58:27.469Z,4.10
2022-10-11T16:00:56.558Z,3.75
2022-10-11T16:03:26.771Z,4.32
2022-10-11T16:05:54.162Z,4.00
2022-10-11T16:08:21.318Z,3.67
2022-10-11T16:10:48.406Z,3.60
2022-10-11T16:13:15.496Z,3.50
2022-10-11T16:15:43.437Z,3.35
2022-10-11T16:18:13.143Z,3.42
2022-10-11T16:20:41.323Z,3.28
2022-10-11T16:23:08.183Z,3.80
2022-10-11T16:25:34.875Z,3.47
2022-10-11T16:28:02.485Z,3.38
2022-10-11T16:30:29.325Z,3.08
2022-10-11T16:32:56.269Z,3.60
2022-10-11T16:35:23.206Z,3.60
2022-10-11T16:37:50.090Z,3.05
2022-10-11T16:40:17.711Z,3.50
2022-10-11T16:42:45.979Z,2.70
2022-10-11T16:45:14.577Z,3.00
2022-10-11T16:47:42.515Z,3.42
2022-10-11T16:50:10.181Z,3.35
2022-10-11T16:52:36.835Z,3.22
2022-10-11T16:55:04.091Z,3.10
2022-10-11T16:57:30.670Z,3.78
2022-10-11T16:59:57.313Z,2.95
2022-10-11T17:02:31.387Z,3.25
2022-10-11T17:04:59.266Z,3.13
2022-10-11T17:07:26.352Z,3.47
2022-10-11T17:09:52.857Z,3.33
2022-10-11T17:12:22.040Z,3.13
2022-10-11T17:14:49.327Z,3.40
2022-10-11T17:17:16.682Z,3.00
2022-10-11T17:19:45.346Z,3.67
2022-10-11T17:22:14.453Z,3.28
2022-10-11T17:24:41.363Z,3.50
2022-10-11T17:27:08.246Z,3.85
2022-10-11T17:29:35.702Z,3.97
2022-10-11T17:32:02.572Z,3.63
2022-10-11T17:34:29.322Z,3.58
2022-10-11T17:36:55.883Z,3.72
2022-10-11T17:39:23.892Z,4.20
2022-10-11T17:41:50.890Z,3.65
2022-10-11T17:44:18.499Z,4.60
2022-10-11T17:46:45.654Z,3.83
2022-10-11T17:49:12.854Z,3.90
2022-10-11T17:51:40.279Z,3.65
2022-10-11T17:54:12.305Z,4.32
2022-10-11T17:56:40.714Z,4.03
2022-10-11T17:59:08.507Z,3.60
2022-10-11T18:01:36.133Z,3.03
2022-10-11T18:04:05.289Z,4.50
2022-10-11T18:06:37.490Z,3.75
2022-10-11T18:09:04.595Z,3.08
2022-10-11T18:11:31.643Z,3.28
2022-10-11T18:13:58.279Z,3.40
2022-10-11T18:16:29.504Z,3.30
2022-10-11T18:18:57.546Z,4.32
2022-10-11T18:21:33.650Z,3.33
2022-10-11T18:26:30.789Z,3.22
2022-10-11T18:28:58.953Z,3.40
2022-10-11T18:31:30.356Z,3.35
2022-10-11T18:33:57.131Z,3.72
2022-10-11T18:36:27.267Z,3.90
2022-10-11T18:38:56.578Z,4.38
2022-10-11T18:41:24.985Z,3.80
2022-10-11T18:43:55.101Z,3.63
2022-10-11T18:46:22.629Z,3.40
2022-10-11T18:48:51.714Z,3.72
2022-10-11T18:51:23.915Z,3.90
2022-10-11T18:53:50.969Z,3.75
2022-10-11T18:56:20.719Z,3.63
2022-10-11T18:58:49.997Z,3.85
2022-10-11T19:01:21.740Z,4.72
2022-10-11T19:03:52.690Z,4.13
2022-10-11T19:06:21.730Z,3.75
2022-10-11T19:08:51.540Z,4.32
2022-10-11T19:11:22.887Z,5.45
2022-10-11T19:13:56.353Z,4.75
2022-10-11T19:16:23.279Z,4.60
2022-10-11T19:18:50.707Z,4.80
2022-10-11T19:21:17.350Z,4.55
2022-10-11T19:23:45.833Z,4.90
2022-10-11T19:26:15.267Z,4.60
2022-10-11T19:28:42.267Z,4.82
2022-10-11T19:31:11.570Z,4.47
2022-10-11T19:33:38.032Z,4.53
2022-10-11T19:36:06.853Z,4.90
2022-10-11T19:38:35.052Z,4.95
2022-10-11T19:41:02.715Z,6.03
2022-10-11T19:43:29.385Z,5.30
2022-10-11T19:46:07.314Z,5.75
2022-10-11T19:48:37.672Z,4.93
2022-10-11T19:51:07.455Z,4.53
2022-10-11T19:53:34.856Z,5.30
2022-10-11T19:56:03.662Z,5.45
2022-10-11T19:58:30.528Z,5.50
2022-10-11T20:01:04.865Z,5.38
2022-10-11T20:03:31.993Z,5.28
2022-10-11T20:06:06.562Z,5.55
2022-10-11T20:08:34.029Z,5.57
2022-10-11T20:11:02.939Z,6.03
2022-10-11T20:13:34.713Z,6.53
2022-10-11T20:16:07.120Z,5.60
2022-10-11T20:18:33.829Z,5.82
2022-10-11T20:21:03.446Z,6.35
2022-10-11T20:23:31.125Z,5.95
2022-10-11T20:26:01.442Z,5.20
2022-10-11T20:28:29.184Z,5.28
2022-10-11T20:30:55.722Z,4.97
2022-10-11T20:33:22.655Z,5.72
2022-10-11T20:35:58.448Z,4.75
2022-10-11T20:38:25.513Z,5.47
2022-10-11T20:40:51.993Z,5.03
2022-10-11T20:43:18.551Z,5.93
2022-10-11T20:45:45.262Z,5.57
2022-10-11T20:48:11.821Z,5.28
2022-10-11T20:50:38.641Z,5.43
2022-10-11T20:53:05.324Z,4.88
2022-10-11T20:55:31.800Z,5.82
2022-10-11T20:57:58.297Z,5.72
2022-10-11T21:00:25.039Z,5.78
2022-10-11T21:02:51.597Z,5.35
2022-10-11T21:05:18.105Z,5.13
2022-10-11T21:07:44.749Z,5.00
2022-10-11T21:10:11.283Z,4.72
2022-10-11T21:12:37.812Z,5.32
2022-10-11T21:15:04.657Z,5.32
2022-10-11T21:17:31.151Z,5.32
2022-10-11T21:19:59.024Z,5.22
2022-10-11T21:22:25.760Z,4.93
2022-10-11T21:24:52.266Z,5.45
2022-10-11T21:27:18.815Z,5.20
2022-10-11T21:29:45.426Z,5.32
2022-10-11T21:32:14.372Z,5.22
2022-10-11T21:34:41.136Z,5.05
2022-10-11T21:37:07.843Z,5.50
2022-10-11T21:39:34.374Z,5.90
2022-10-11T21:42:00.895Z,7.18
2022-10-11T21:44:27.713Z,5.07
2022-10-11T21:47:06.690Z,4.97
2022-10-11T21:49:33.964Z,5.25
2022-10-11T21:52:00.558Z,5.30
2022-10-11T21:54:27.413Z,4.97
2022-10-11T21:56:54.428Z,5.30
2022-10-11T21:59:20.987Z,5.60
2022-10-11T22:01:47.788Z,4.78
2022-10-11T22:04:14.446Z,4.22
2022-10-11T22:06:41.024Z,4.72
2022-10-11T22:09:08.821Z,4.50
2022-10-11T22:11:35.804Z,4.53
2022-10-11T22:14:02.381Z,5.13
2022-10-11T22:16:28.855Z,4.72
2022-10-11T22:18:55.678Z,4.50
2022-10-11T22:21:23.758Z,4.47
2022-10-11T22:23:52.783Z,4.85
2022-10-11T22:26:22.256Z,4.50
2022-10-11T22:28:49.253Z,5.15
2022-10-11T22:31:17.966Z,5.00
2022-10-11T22:36:18.897Z,5.07
2022-10-11T22:38:46.499Z,4.75
2022-10-11T22:41:13.183Z,5.32
2022-10-11T22:43:40.274Z,4.72
2022-10-11T22:46:07.373Z,4.32
2022-10-11T22:48:34.121Z,4.95
2022-10-11T22:51:00.903Z,4.68
2022-10-11T22:53:27.565Z,4.82
2022-10-11T22:55:54.225Z,4.55
2022-10-11T22:58:20.770Z,4.55
2022-10-11T23:00:47.342Z,4.63
2022-10-11T23:03:15.439Z,4.93
2022-10-11T23:05:42.317Z,5.18
2022-10-11T23:08:09.699Z,5.32
2022-10-11T23:10:40.257Z,5.25
2022-10-11T23:13:06.889Z,5.50
2022-10-11T23:15:33.424Z,4.82
2022-10-11T23:17:59.973Z,5.65
2022-10-11T23:20:26.970Z,5.50
2022-10-11T23:22:53.523Z,5.72
2022-10-11T23:25:20.054Z,4.80
2022-10-11T23:27:46.581Z,5.55
2022-10-11T23:30:13.836Z,4.93
2022-10-11T23:32:40.338Z,5.13
2022-10-11T23:35:07.208Z,5.18
2022-10-11T23:37:33.964Z,5.25
2022-10-11T23:40:00.503Z,5.15
2022-10-11T23:42:27.170Z,5.63
2022-10-11T23:44:54.349Z,5.68
2022-10-11T23:47:20.900Z,6.25
2022-10-11T23:49:47.448Z,5.82
2022-10-11T23:52:14.131Z,5.55
2022-10-11T23:54:40.607Z,5.63
2022-10-11T23:57:07.229Z,6.10
2022-10-11T23:59:33.767Z,5.47
